sensor_id;sensor_type;location;lat;lon;timestamp;P1;durP1;ratioP1;P2;durP2;ratioP2
13475;SDS011;6810;63.824;20.288;2024-03-22T00:02:38;2.13;;;0.40;;
13475;SDS011;6810;63.824;20.288;2024-03-22T00:05:24;1.57;;;0.70;;
13475;SDS011;6810;63.824;20.288;2024-03-22T00:08:10;1.37;;;0.80;;
13475;SDS011;6810;63.824;20.288;2024-03-22T00:10:56;2.63;;;0.63;;
13475;SDS011;6810;63.824;20.288;2024-03-22T00:13:42;2.83;;;0.73;;
13475;SDS011;6810;63.824;20.288;2024-03-22T00:16:28;1.70;;;0.70;;
13475;SDS011;6810;63.824;20.288;2024-03-22T00:19:14;3.43;;;0.90;;
13475;SDS011;6810;63.824;20.288;2024-03-22T00:22:00;4.00;;;0.60;;
13475;SDS011;6810;63.824;20.288;2024-03-22T00:24:46;2.77;;;0.53;;
13475;SDS011;6810;63.824;20.288;2024-03-22T00:27:32;4.03;;;0.70;;
13475;SDS011;6810;63.824;20.288;2024-03-22T00:30:18;2.83;;;0.87;;
13475;SDS011;6810;63.824;20.288;2024-03-22T00:33:05;2.23;;;0.70;;
13475;SDS011;6810;63.824;20.288;2024-03-22T00:35:51;4.00;;;0.80;;
13475;SDS011;6810;63.824;20.288;2024-03-22T00:38:37;3.07;;;0.63;;
13475;SDS011;6810;63.824;20.288;2024-03-22T00:41:23;4.03;;;0.90;;
13475;SDS011;6810;63.824;20.288;2024-03-22T00:44:09;3.43;;;1.10;;
13475;SDS011;6810;63.824;20.288;2024-03-22T00:46:56;4.73;;;0.67;;
13475;SDS011;6810;63.824;20.288;2024-03-22T00:49:42;3.33;;;0.90;;
13475;SDS011;6810;63.824;20.288;2024-03-22T00:52:28;3.80;;;1.00;;
13475;SDS011;6810;63.824;20.288;2024-03-22T00:55:14;4.70;;;0.80;;
13475;SDS011;6810;63.824;20.288;2024-03-22T00:58:00;3.87;;;0.80;;
13475;SDS011;6810;63.824;20.288;2024-03-22T01:00:46;2.20;;;0.80;;
13475;SDS011;6810;63.824;20.288;2024-03-22T01:03:33;4.20;;;0.90;;
13475;SDS011;6810;63.824;20.288;2024-03-22T01:06:19;3.83;;;0.80;;
13475;SDS011;6810;63.824;20.288;2024-03-22T01:09:05;3.70;;;1.20;;
13475;SDS011;6810;63.824;20.288;2024-03-22T01:11:52;3.07;;;0.80;;
13475;SDS011;6810;63.824;20.288;2024-03-22T01:14:38;4.60;;;0.60;;
13475;SDS011;6810;63.824;20.288;2024-03-22T01:17:24;4.70;;;1.27;;
13475;SDS011;6810;63.824;20.288;2024-03-22T01:20:10;3.73;;;1.00;;
13475;SDS011;6810;63.824;20.288;2024-03-22T01:22:56;2.47;;;0.83;;
13475;SDS011;6810;63.824;20.288;2024-03-22T01:25:44;3.63;;;0.77;;
13475;SDS011;6810;63.824;20.288;2024-03-22T01:28:30;3.80;;;0.80;;
13475;SDS011;6810;63.824;20.288;2024-03-22T01:31:16;3.00;;;0.60;;
13475;SDS011;6810;63.824;20.288;2024-03-22T01:34:02;3.43;;;0.60;;
13475;SDS011;6810;63.824;20.288;2024-03-22T01:36:48;3.13;;;0.70;;
13475;SDS011;6810;63.824;20.288;2024-03-22T01:39:35;2.40;;;0.90;;
13475;SDS011;6810;63.824;20.288;2024-03-22T01:42:22;3.23;;;0.63;;
13475;SDS011;6810;63.824;20.288;2024-03-22T01:45:08;3.07;;;0.47;;
13475;SDS011;6810;63.824;20.288;2024-03-22T01:47:54;2.43;;;0.53;;
13475;SDS011;6810;63.824;20.288;2024-03-22T01:50:40;4.90;;;0.60;;
13475;SDS011;6810;63.824;20.288;2024-03-22T01:53:27;1.37;;;0.60;;
13475;SDS011;6810;63.824;20.288;2024-03-22T01:56:14;4.33;;;0.80;;
13475;SDS011;6810;63.824;20.288;2024-03-22T01:59:00;4.23;;;1.10;;
13475;SDS011;6810;63.824;20.288;2024-03-22T02:01:47;3.17;;;0.67;;
13475;SDS011;6810;63.824;20.288;2024-03-22T02:04:34;2.63;;;0.63;;
13475;SDS011;6810;63.824;20.288;2024-03-22T02:07:20;4.93;;;0.60;;
13475;SDS011;6810;63.824;20.288;2024-03-22T02:10:06;2.43;;;0.80;;
13475;SDS011;6810;63.824;20.288;2024-03-22T02:12:53;2.27;;;0.53;;
13475;SDS011;6810;63.824;20.288;2024-03-22T02:15:39;2.03;;;0.70;;
13475;SDS011;6810;63.824;20.288;2024-03-22T02:18:25;3.70;;;0.60;;
13475;SDS011;6810;63.824;20.288;2024-03-22T02:21:11;3.23;;;0.60;;
13475;SDS011;6810;63.824;20.288;2024-03-22T02:23:57;2.70;;;0.70;;
13475;SDS011;6810;63.824;20.288;2024-03-22T02:26:43;3.23;;;0.50;;
13475;SDS011;6810;63.824;20.288;2024-03-22T02:29:29;1.70;;;0.67;;
13475;SDS011;6810;63.824;20.288;2024-03-22T02:32:15;4.60;;;0.80;;
13475;SDS011;6810;63.824;20.288;2024-03-22T02:35:02;1.63;;;0.60;;
13475;SDS011;6810;63.824;20.288;2024-03-22T02:37:48;2.37;;;0.80;;
13475;SDS011;6810;63.824;20.288;2024-03-22T02:40:34;3.40;;;1.00;;
13475;SDS011;6810;63.824;20.288;2024-03-22T02:43:20;4.47;;;0.80;;
13475;SDS011;6810;63.824;20.288;2024-03-22T02:46:06;2.63;;;0.53;;
13475;SDS011;6810;63.824;20.288;2024-03-22T02:48:52;4.03;;;0.60;;
13475;SDS011;6810;63.824;20.288;2024-03-22T02:51:39;2.20;;;0.63;;
13475;SDS011;6810;63.824;20.288;2024-03-22T02:54:25;3.43;;;0.60;;
13475;SDS011;6810;63.824;20.288;2024-03-22T02:57:11;1.20;;;0.50;;
13475;SDS011;6810;63.824;20.288;2024-03-22T02:59:59;2.63;;;0.60;;
13475;SDS011;6810;63.824;20.288;2024-03-22T03:02:46;1.23;;;0.60;;
13475;SDS011;6810;63.824;20.288;2024-03-22T03:05:32;2.57;;;0.60;;
13475;SDS011;6810;63.824;20.288;2024-03-22T03:08:18;1.53;;;0.80;;
13475;SDS011;6810;63.824;20.288;2024-03-22T03:11:05;2.20;;;0.60;;
13475;SDS011;6810;63.824;20.288;2024-03-22T03:13:51;1.87;;;0.60;;
13475;SDS011;6810;63.824;20.288;2024-03-22T03:16:37;1.97;;;0.70;;
13475;SDS011;6810;63.824;20.288;2024-03-22T03:19:23;2.57;;;0.60;;
13475;SDS011;6810;63.824;20.288;2024-03-22T03:22:09;1.70;;;0.90;;
13475;SDS011;6810;63.824;20.288;2024-03-22T03:24:55;3.43;;;1.03;;
13475;SDS011;6810;63.824;20.288;2024-03-22T03:27:41;3.87;;;1.23;;
13475;SDS011;6810;63.824;20.288;2024-03-22T03:30:27;1.83;;;1.10;;
13475;SDS011;6810;63.824;20.288;2024-03-22T03:33:13;2.17;;;1.00;;
13475;SDS011;6810;63.824;20.288;2024-03-22T03:35:59;1.93;;;1.00;;
13475;SDS011;6810;63.824;20.288;2024-03-22T03:38:45;2.17;;;1.20;;
13475;SDS011;6810;63.824;20.288;2024-03-22T03:41:31;3.13;;;0.90;;
13475;SDS011;6810;63.824;20.288;2024-03-22T03:44:17;4.47;;;1.43;;
13475;SDS011;6810;63.824;20.288;2024-03-22T03:47:03;2.20;;;1.07;;
13475;SDS011;6810;63.824;20.288;2024-03-22T03:49:50;4.67;;;1.10;;
13475;SDS011;6810;63.824;20.288;2024-03-22T03:52:36;2.43;;;0.70;;
13475;SDS011;6810;63.824;20.288;2024-03-22T03:55:22;3.03;;;0.90;;
13475;SDS011;6810;63.824;20.288;2024-03-22T03:58:08;2.20;;;1.13;;
13475;SDS011;6810;63.824;20.288;2024-03-22T04:00:55;1.03;;;0.60;;
13475;SDS011;6810;63.824;20.288;2024-03-22T04:03:41;1.23;;;0.57;;
13475;SDS011;6810;63.824;20.288;2024-03-22T04:06:27;1.60;;;0.70;;
13475;SDS011;6810;63.824;20.288;2024-03-22T04:09:13;1.37;;;0.70;;
13475;SDS011;6810;63.824;20.288;2024-03-22T04:11:59;1.80;;;0.83;;
13475;SDS011;6810;63.824;20.288;2024-03-22T04:14:45;1.60;;;1.00;;
13475;SDS011;6810;63.824;20.288;2024-03-22T04:17:31;0.97;;;0.57;;
13475;SDS011;6810;63.824;20.288;2024-03-22T04:20:17;2.83;;;0.73;;
13475;SDS011;6810;63.824;20.288;2024-03-22T04:23:03;1.23;;;0.93;;
13475;SDS011;6810;63.824;20.288;2024-03-22T04:25:55;3.13;;;0.80;;
13475;SDS011;6810;63.824;20.288;2024-03-22T04:28:43;0.87;;;0.57;;
13475;SDS011;6810;63.824;20.288;2024-03-22T04:31:29;1.63;;;0.90;;
13475;SDS011;6810;63.824;20.288;2024-03-22T04:34:15;1.10;;;0.73;;
13475;SDS011;6810;63.824;20.288;2024-03-22T04:37:01;2.17;;;0.60;;
13475;SDS011;6810;63.824;20.288;2024-03-22T04:39:47;2.10;;;0.60;;
13475;SDS011;6810;63.824;20.288;2024-03-22T04:42:33;1.40;;;0.80;;
13475;SDS011;6810;63.824;20.288;2024-03-22T04:45:20;1.67;;;0.73;;
13475;SDS011;6810;63.824;20.288;2024-03-22T04:48:06;1.60;;;0.60;;
13475;SDS011;6810;63.824;20.288;2024-03-22T04:50:52;2.23;;;0.80;;
13475;SDS011;6810;63.824;20.288;2024-03-22T04:53:38;2.20;;;1.07;;
13475;SDS011;6810;63.824;20.288;2024-03-22T04:56:24;1.20;;;0.70;;
13475;SDS011;6810;63.824;20.288;2024-03-22T04:59:10;2.23;;;0.90;;
13475;SDS011;6810;63.824;20.288;2024-03-22T05:01:57;1.30;;;0.67;;
13475;SDS011;6810;63.824;20.288;2024-03-22T05:04:43;2.10;;;1.07;;
13475;SDS011;6810;63.824;20.288;2024-03-22T05:07:29;2.20;;;0.93;;
13475;SDS011;6810;63.824;20.288;2024-03-22T05:10:15;2.20;;;1.03;;
13475;SDS011;6810;63.824;20.288;2024-03-22T05:13:01;2.10;;;1.13;;
13475;SDS011;6810;63.824;20.288;2024-03-22T05:15:47;2.73;;;1.30;;
13475;SDS011;6810;63.824;20.288;2024-03-22T05:18:33;3.30;;;1.67;;
13475;SDS011;6810;63.824;20.288;2024-03-22T05:21:19;3.73;;;1.90;;
13475;SDS011;6810;63.824;20.288;2024-03-22T05:24:06;3.97;;;1.80;;
13475;SDS011;6810;63.824;20.288;2024-03-22T05:26:52;2.40;;;1.63;;
13475;SDS011;6810;63.824;20.288;2024-03-22T05:29:39;3.27;;;1.70;;
13475;SDS011;6810;63.824;20.288;2024-03-22T05:32:25;6.43;;;1.73;;
13475;SDS011;6810;63.824;20.288;2024-03-22T05:35:11;3.43;;;1.97;;
13475;SDS011;6810;63.824;20.288;2024-03-22T05:37:57;2.33;;;1.60;;
13475;SDS011;6810;63.824;20.288;2024-03-22T05:40:44;3.53;;;1.77;;
13475;SDS011;6810;63.824;20.288;2024-03-22T05:43:30;3.03;;;1.30;;
13475;SDS011;6810;63.824;20.288;2024-03-22T05:46:16;3.60;;;1.30;;
13475;SDS011;6810;63.824;20.288;2024-03-22T05:49:02;3.37;;;1.43;;
13475;SDS011;6810;63.824;20.288;2024-03-22T05:51:48;1.83;;;1.10;;
13475;SDS011;6810;63.824;20.288;2024-03-22T05:54:34;2.37;;;1.10;;
13475;SDS011;6810;63.824;20.288;2024-03-22T05:57:20;2.13;;;1.20;;
13475;SDS011;6810;63.824;20.288;2024-03-22T06:00:06;2.03;;;1.20;;
13475;SDS011;6810;63.824;20.288;2024-03-22T06:02:53;1.63;;;1.07;;
13475;SDS011;6810;63.824;20.288;2024-03-22T06:05:39;1.27;;;0.90;;
13475;SDS011;6810;63.824;20.288;2024-03-22T06:08:28;2.13;;;1.00;;
13475;SDS011;6810;63.824;20.288;2024-03-22T06:11:14;1.97;;;1.00;;
13475;SDS011;6810;63.824;20.288;2024-03-22T06:14:01;1.50;;;1.20;;
13475;SDS011;6810;63.824;20.288;2024-03-22T06:16:47;1.33;;;1.03;;
13475;SDS011;6810;63.824;20.288;2024-03-22T06:19:34;1.57;;;1.00;;
13475;SDS011;6810;63.824;20.288;2024-03-22T06:22:20;1.53;;;0.93;;
13475;SDS011;6810;63.824;20.288;2024-03-22T06:25:06;1.40;;;1.10;;
13475;SDS011;6810;63.824;20.288;2024-03-22T06:27:53;1.73;;;0.80;;
13475;SDS011;6810;63.824;20.288;2024-03-22T06:30:39;1.40;;;0.87;;
13475;SDS011;6810;63.824;20.288;2024-03-22T06:33:25;1.17;;;0.80;;
13475;SDS011;6810;63.824;20.288;2024-03-22T06:36:11;2.27;;;0.90;;
13475;SDS011;6810;63.824;20.288;2024-03-22T06:38:57;0.87;;;0.77;;
13475;SDS011;6810;63.824;20.288;2024-03-22T06:41:44;1.73;;;0.90;;
13475;SDS011;6810;63.824;20.288;2024-03-22T06:44:30;1.33;;;0.90;;
13475;SDS011;6810;63.824;20.288;2024-03-22T06:47:17;0.70;;;0.60;;
13475;SDS011;6810;63.824;20.288;2024-03-22T06:50:03;1.10;;;0.73;;
13475;SDS011;6810;63.824;20.288;2024-03-22T06:52:52;1.20;;;0.70;;
13475;SDS011;6810;63.824;20.288;2024-03-22T06:55:38;0.73;;;0.70;;
13475;SDS011;6810;63.824;20.288;2024-03-22T06:58:24;0.77;;;0.70;;
13475;SDS011;6810;63.824;20.288;2024-03-22T07:01:10;1.07;;;0.57;;
13475;SDS011;6810;63.824;20.288;2024-03-22T07:03:56;0.87;;;0.70;;
13475;SDS011;6810;63.824;20.288;2024-03-22T07:06:42;0.87;;;0.70;;
13475;SDS011;6810;63.824;20.288;2024-03-22T07:09:28;0.63;;;0.60;;
13475;SDS011;6810;63.824;20.288;2024-03-22T07:12:14;1.43;;;0.67;;
13475;SDS011;6810;63.824;20.288;2024-03-22T07:15:01;0.60;;;0.60;;
13475;SDS011;6810;63.824;20.288;2024-03-22T07:17:48;1.27;;;0.77;;
13475;SDS011;6810;63.824;20.288;2024-03-22T07:20:34;0.73;;;0.73;;
13475;SDS011;6810;63.824;20.288;2024-03-22T07:23:20;1.00;;;0.70;;
13475;SDS011;6810;63.824;20.288;2024-03-22T07:26:06;0.60;;;0.60;;
13475;SDS011;6810;63.824;20.288;2024-03-22T07:28:52;0.70;;;0.57;;
13475;SDS011;6810;63.824;20.288;2024-03-22T07:31:38;0.70;;;0.60;;
13475;SDS011;6810;63.824;20.288;2024-03-22T07:34:25;1.10;;;0.53;;
13475;SDS011;6810;63.824;20.288;2024-03-22T07:37:11;0.57;;;0.40;;
13475;SDS011;6810;63.824;20.288;2024-03-22T07:39:57;0.70;;;0.50;;
13475;SDS011;6810;63.824;20.288;2024-03-22T07:42:43;0.60;;;0.50;;
13475;SDS011;6810;63.824;20.288;2024-03-22T07:45:29;0.57;;;0.50;;
13475;SDS011;6810;63.824;20.288;2024-03-22T07:48:15;0.43;;;0.43;;
13475;SDS011;6810;63.824;20.288;2024-03-22T07:51:01;0.70;;;0.40;;
13475;SDS011;6810;63.824;20.288;2024-03-22T07:53:36;0.40;;;0.40;;
13475;SDS011;6810;63.824;20.288;2024-03-22T07:56:02;0.60;;;0.40;;
13475;SDS011;6810;63.824;20.288;2024-03-22T07:58:28;0.30;;;0.23;;
13475;SDS011;6810;63.824;20.288;2024-03-22T08:00:54;0.30;;;0.20;;
13475;SDS011;6810;63.824;20.288;2024-03-22T08:03:21;0.30;;;0.30;;
13475;SDS011;6810;63.824;20.288;2024-03-22T08:06:07;0.83;;;0.40;;
13475;SDS011;6810;63.824;20.288;2024-03-22T08:08:53;0.30;;;0.30;;
13475;SDS011;6810;63.824;20.288;2024-03-22T08:11:39;0.87;;;0.33;;
13475;SDS011;6810;63.824;20.288;2024-03-22T08:14:25;1.17;;;0.30;;
13475;SDS011;6810;63.824;20.288;2024-03-22T08:17:11;0.20;;;0.20;;
13475;SDS011;6810;63.824;20.288;2024-03-22T08:19:57;0.30;;;0.30;;
13475;SDS011;6810;63.824;20.288;2024-03-22T08:22:43;0.77;;;0.40;;
13475;SDS011;6810;63.824;20.288;2024-03-22T08:25:29;0.50;;;0.50;;
13475;SDS011;6810;63.824;20.288;2024-03-22T08:28:15;0.33;;;0.30;;
13475;SDS011;6810;63.824;20.288;2024-03-22T08:31:05;1.10;;;0.50;;
13475;SDS011;6810;63.824;20.288;2024-03-22T08:33:51;0.53;;;0.43;;
13475;SDS011;6810;63.824;20.288;2024-03-22T08:36:37;0.43;;;0.43;;
13475;SDS011;6810;63.824;20.288;2024-03-22T08:39:23;0.50;;;0.40;;
13475;SDS011;6810;63.824;20.288;2024-03-22T08:42:09;1.13;;;0.70;;
13475;SDS011;6810;63.824;20.288;2024-03-22T08:44:55;1.40;;;0.50;;
13475;SDS011;6810;63.824;20.288;2024-03-22T08:47:42;0.93;;;0.70;;
13475;SDS011;6810;63.824;20.288;2024-03-22T08:50:28;0.50;;;0.50;;
13475;SDS011;6810;63.824;20.288;2024-03-22T08:53:14;0.60;;;0.60;;
13475;SDS011;6810;63.824;20.288;2024-03-22T08:56:00;1.40;;;0.60;;
13475;SDS011;6810;63.824;20.288;2024-03-22T08:58:46;1.10;;;0.60;;
13475;SDS011;6810;63.824;20.288;2024-03-22T09:01:33;1.50;;;0.80;;
13475;SDS011;6810;63.824;20.288;2024-03-22T09:04:19;0.60;;;0.60;;
13475;SDS011;6810;63.824;20.288;2024-03-22T09:07:05;2.07;;;0.87;;
13475;SDS011;6810;63.824;20.288;2024-03-22T09:09:51;1.07;;;0.60;;
13475;SDS011;6810;63.824;20.288;2024-03-22T09:12:37;1.80;;;0.90;;
13475;SDS011;6810;63.824;20.288;2024-03-22T09:15:23;0.80;;;0.80;;
13475;SDS011;6810;63.824;20.288;2024-03-22T09:18:09;1.00;;;0.80;;
13475;SDS011;6810;63.824;20.288;2024-03-22T09:20:55;1.53;;;0.90;;
13475;SDS011;6810;63.824;20.288;2024-03-22T09:23:42;1.90;;;0.90;;
13475;SDS011;6810;63.824;20.288;2024-03-22T09:26:28;1.20;;;1.03;;
13475;SDS011;6810;63.824;20.288;2024-03-22T09:29:14;1.50;;;0.90;;
13475;SDS011;6810;63.824;20.288;2024-03-22T09:32:00;1.50;;;1.10;;
13475;SDS011;6810;63.824;20.288;2024-03-22T09:34:48;1.77;;;1.00;;
13475;SDS011;6810;63.824;20.288;2024-03-22T09:37:34;1.13;;;1.03;;
13475;SDS011;6810;63.824;20.288;2024-03-22T09:40:21;3.03;;;1.00;;
13475;SDS011;6810;63.824;20.288;2024-03-22T09:43:07;1.17;;;0.90;;
13475;SDS011;6810;63.824;20.288;2024-03-22T09:45:57;1.70;;;1.40;;
13475;SDS011;6810;63.824;20.288;2024-03-22T09:48:44;1.50;;;1.20;;
13475;SDS011;6810;63.824;20.288;2024-03-22T09:51:33;1.10;;;1.00;;
13475;SDS011;6810;63.824;20.288;2024-03-22T09:54:22;1.77;;;1.00;;
13475;SDS011;6810;63.824;20.288;2024-03-22T09:57:11;1.20;;;1.10;;
13475;SDS011;6810;63.824;20.288;2024-03-22T09:59:59;1.50;;;1.40;;
13475;SDS011;6810;63.824;20.288;2024-03-22T10:02:46;1.53;;;1.30;;
13475;SDS011;6810;63.824;20.288;2024-03-22T10:05:32;1.40;;;1.30;;
13475;SDS011;6810;63.824;20.288;2024-03-22T10:08:18;2.43;;;1.10;;
13475;SDS011;6810;63.824;20.288;2024-03-22T10:11:04;1.40;;;1.30;;
13475;SDS011;6810;63.824;20.288;2024-03-22T10:13:51;1.30;;;1.10;;
13475;SDS011;6810;63.824;20.288;2024-03-22T10:16:38;1.37;;;1.27;;
13475;SDS011;6810;63.824;20.288;2024-03-22T10:19:25;1.20;;;1.10;;
13475;SDS011;6810;63.824;20.288;2024-03-22T10:22:11;0.90;;;0.90;;
13475;SDS011;6810;63.824;20.288;2024-03-22T10:24:57;1.23;;;0.90;;
13475;SDS011;6810;63.824;20.288;2024-03-22T10:27:43;1.63;;;1.20;;
13475;SDS011;6810;63.824;20.288;2024-03-22T10:30:29;1.53;;;1.00;;
13475;SDS011;6810;63.824;20.288;2024-03-22T10:33:16;1.40;;;1.30;;
13475;SDS011;6810;63.824;20.288;2024-03-22T10:36:04;1.70;;;1.30;;
13475;SDS011;6810;63.824;20.288;2024-03-22T10:38:52;1.30;;;1.10;;
13475;SDS011;6810;63.824;20.288;2024-03-22T10:41:40;1.33;;;1.23;;
13475;SDS011;6810;63.824;20.288;2024-03-22T10:44:26;1.20;;;1.10;;
13475;SDS011;6810;63.824;20.288;2024-03-22T10:47:12;1.17;;;1.10;;
13475;SDS011;6810;63.824;20.288;2024-03-22T10:50:07;1.43;;;1.33;;
13475;SDS011;6810;63.824;20.288;2024-03-22T10:53:01;1.40;;;1.13;;
13475;SDS011;6810;63.824;20.288;2024-03-22T10:55:51;1.30;;;1.20;;
13475;SDS011;6810;63.824;20.288;2024-03-22T10:58:39;1.63;;;1.20;;
13475;SDS011;6810;63.824;20.288;2024-03-22T11:01:26;2.60;;;1.40;;
13475;SDS011;6810;63.824;20.288;2024-03-22T11:04:15;1.53;;;1.10;;
13475;SDS011;6810;63.824;20.288;2024-03-22T11:07:02;1.30;;;0.97;;
13475;SDS011;6810;63.824;20.288;2024-03-22T11:09:52;1.13;;;0.90;;
13475;SDS011;6810;63.824;20.288;2024-03-22T11:12:41;1.40;;;1.10;;
13475;SDS011;6810;63.824;20.288;2024-03-22T11:15:28;1.90;;;1.20;;
13475;SDS011;6810;63.824;20.288;2024-03-22T11:18:14;1.10;;;1.00;;
13475;SDS011;6810;63.824;20.288;2024-03-22T11:21:00;2.03;;;1.10;;
13475;SDS011;6810;63.824;20.288;2024-03-22T11:23:46;1.33;;;0.93;;
13475;SDS011;6810;63.824;20.288;2024-03-22T11:26:33;2.07;;;1.00;;
13475;SDS011;6810;63.824;20.288;2024-03-22T11:29:19;1.00;;;0.90;;
13475;SDS011;6810;63.824;20.288;2024-03-22T11:32:06;0.83;;;0.83;;
13475;SDS011;6810;63.824;20.288;2024-03-22T11:34:52;1.13;;;0.90;;
13475;SDS011;6810;63.824;20.288;2024-03-22T11:37:39;0.70;;;0.70;;
13475;SDS011;6810;63.824;20.288;2024-03-22T11:40:26;0.80;;;0.80;;
13475;SDS011;6810;63.824;20.288;2024-03-22T11:43:12;0.70;;;0.70;;
13475;SDS011;6810;63.824;20.288;2024-03-22T11:46:01;0.70;;;0.60;;
13475;SDS011;6810;63.824;20.288;2024-03-22T11:48:50;0.80;;;0.70;;
13475;SDS011;6810;63.824;20.288;2024-03-22T11:51:38;0.60;;;0.60;;
13475;SDS011;6810;63.824;20.288;2024-03-22T11:54:24;1.07;;;0.67;;
13475;SDS011;6810;63.824;20.288;2024-03-22T11:57:10;0.67;;;0.67;;
13475;SDS011;6810;63.824;20.288;2024-03-22T12:00:01;3.47;;;1.00;;
13475;SDS011;6810;63.824;20.288;2024-03-22T12:02:49;1.37;;;0.53;;
13475;SDS011;6810;63.824;20.288;2024-03-22T12:05:36;1.10;;;0.80;;
13475;SDS011;6810;63.824;20.288;2024-03-22T12:08:22;1.40;;;0.60;;
13475;SDS011;6810;63.824;20.288;2024-03-22T12:11:09;1.50;;;0.83;;
13475;SDS011;6810;63.824;20.288;2024-03-22T12:13:57;0.73;;;0.70;;
13475;SDS011;6810;63.824;20.288;2024-03-22T12:16:43;2.10;;;0.70;;
13475;SDS011;6810;63.824;20.288;2024-03-22T12:19:29;0.97;;;0.87;;
13475;SDS011;6810;63.824;20.288;2024-03-22T12:22:15;1.50;;;0.87;;
13475;SDS011;6810;63.824;20.288;2024-03-22T12:25:01;0.63;;;0.63;;
13475;SDS011;6810;63.824;20.288;2024-03-22T12:27:47;0.60;;;0.60;;
13475;SDS011;6810;63.824;20.288;2024-03-22T12:30:34;1.00;;;0.70;;
13475;SDS011;6810;63.824;20.288;2024-03-22T12:33:20;1.00;;;0.77;;
13475;SDS011;6810;63.824;20.288;2024-03-22T12:36:06;0.63;;;0.63;;
13475;SDS011;6810;63.824;20.288;2024-03-22T12:38:52;0.70;;;0.70;;
13475;SDS011;6810;63.824;20.288;2024-03-22T12:41:38;0.87;;;0.80;;
13475;SDS011;6810;63.824;20.288;2024-03-22T12:44:24;1.10;;;0.73;;
13475;SDS011;6810;63.824;20.288;2024-03-22T12:47:10;1.70;;;0.53;;
13475;SDS011;6810;63.824;20.288;2024-03-22T12:49:56;1.00;;;0.60;;
13475;SDS011;6810;63.824;20.288;2024-03-22T12:52:42;0.60;;;0.60;;
13475;SDS011;6810;63.824;20.288;2024-03-22T12:55:28;0.60;;;0.50;;
13475;SDS011;6810;63.824;20.288;2024-03-22T12:58:14;0.80;;;0.50;;
13475;SDS011;6810;63.824;20.288;2024-03-22T13:01:01;1.50;;;0.87;;
13475;SDS011;6810;63.824;20.288;2024-03-22T13:03:47;2.03;;;0.83;;
13475;SDS011;6810;63.824;20.288;2024-03-22T13:06:33;0.60;;;0.60;;
13475;SDS011;6810;63.824;20.288;2024-03-22T13:09:19;0.70;;;0.70;;
13475;SDS011;6810;63.824;20.288;2024-03-22T13:12:05;1.00;;;0.80;;
13475;SDS011;6810;63.824;20.288;2024-03-22T13:14:52;0.80;;;0.70;;
13475;SDS011;6810;63.824;20.288;2024-03-22T13:17:38;1.13;;;0.70;;
13475;SDS011;6810;63.824;20.288;2024-03-22T13:20:24;0.53;;;0.50;;
13475;SDS011;6810;63.824;20.288;2024-03-22T13:23:10;1.43;;;0.77;;
13475;SDS011;6810;63.824;20.288;2024-03-22T13:25:57;0.70;;;0.70;;
13475;SDS011;6810;63.824;20.288;2024-03-22T13:28:47;1.67;;;0.60;;
13475;SDS011;6810;63.824;20.288;2024-03-22T13:31:34;0.90;;;0.70;;
13475;SDS011;6810;63.824;20.288;2024-03-22T13:34:20;1.97;;;0.77;;
13475;SDS011;6810;63.824;20.288;2024-03-22T13:37:06;0.50;;;0.50;;
13475;SDS011;6810;63.824;20.288;2024-03-22T13:39:52;1.70;;;0.80;;
13475;SDS011;6810;63.824;20.288;2024-03-22T13:42:38;1.67;;;0.70;;
13475;SDS011;6810;63.824;20.288;2024-03-22T13:45:24;1.00;;;0.73;;
13475;SDS011;6810;63.824;20.288;2024-03-22T13:48:10;0.90;;;0.87;;
13475;SDS011;6810;63.824;20.288;2024-03-22T13:50:58;1.50;;;0.67;;
13475;SDS011;6810;63.824;20.288;2024-03-22T13:53:44;1.20;;;0.80;;
13475;SDS011;6810;63.824;20.288;2024-03-22T13:56:30;0.60;;;0.60;;
13475;SDS011;6810;63.824;20.288;2024-03-22T13:58:56;1.73;;;0.60;;
13475;SDS011;6810;63.824;20.288;2024-03-22T14:01:42;0.73;;;0.70;;
13475;SDS011;6810;63.824;20.288;2024-03-22T14:04:28;0.80;;;0.70;;
13475;SDS011;6810;63.824;20.288;2024-03-22T14:07:14;0.70;;;0.70;;
13475;SDS011;6810;63.824;20.288;2024-03-22T14:10:00;0.70;;;0.70;;
13475;SDS011;6810;63.824;20.288;2024-03-22T14:12:46;0.70;;;0.60;;
13475;SDS011;6810;63.824;20.288;2024-03-22T14:15:12;0.67;;;0.67;;
13475;SDS011;6810;63.824;20.288;2024-03-22T14:17:59;0.70;;;0.70;;
13475;SDS011;6810;63.824;20.288;2024-03-22T14:20:45;0.50;;;0.50;;
13475;SDS011;6810;63.824;20.288;2024-03-22T14:23:31;0.60;;;0.60;;
13475;SDS011;6810;63.824;20.288;2024-03-22T14:26:17;0.90;;;0.80;;
13475;SDS011;6810;63.824;20.288;2024-03-22T14:29:04;0.40;;;0.40;;
13475;SDS011;6810;63.824;20.288;2024-03-22T14:31:50;0.63;;;0.60;;
13475;SDS011;6810;63.824;20.288;2024-03-22T14:34:36;0.70;;;0.70;;
13475;SDS011;6810;63.824;20.288;2024-03-22T14:37:22;0.70;;;0.70;;
13475;SDS011;6810;63.824;20.288;2024-03-22T14:40:08;0.60;;;0.60;;
13475;SDS011;6810;63.824;20.288;2024-03-22T14:42:55;0.83;;;0.50;;
13475;SDS011;6810;63.824;20.288;2024-03-22T14:45:41;0.50;;;0.50;;
13475;SDS011;6810;63.824;20.288;2024-03-22T14:48:27;0.43;;;0.40;;
13475;SDS011;6810;63.824;20.288;2024-03-22T14:51:13;0.73;;;0.47;;
13475;SDS011;6810;63.824;20.288;2024-03-22T14:53:59;0.40;;;0.40;;
13475;SDS011;6810;63.824;20.288;2024-03-22T14:56:45;0.43;;;0.40;;
13475;SDS011;6810;63.824;20.288;2024-03-22T14:59:31;0.47;;;0.47;;
13475;SDS011;6810;63.824;20.288;2024-03-22T15:02:17;1.03;;;0.30;;
13475;SDS011;6810;63.824;20.288;2024-03-22T15:05:03;0.63;;;0.30;;
13475;SDS011;6810;63.824;20.288;2024-03-22T15:07:50;0.40;;;0.40;;
13475;SDS011;6810;63.824;20.288;2024-03-22T15:10:36;0.70;;;0.60;;
13475;SDS011;6810;63.824;20.288;2024-03-22T15:13:22;0.33;;;0.33;;
13475;SDS011;6810;63.824;20.288;2024-03-22T15:16:08;0.40;;;0.40;;
13475;SDS011;6810;63.824;20.288;2024-03-22T15:18:55;0.47;;;0.47;;
13475;SDS011;6810;63.824;20.288;2024-03-22T15:21:41;1.17;;;0.40;;
13475;SDS011;6810;63.824;20.288;2024-03-22T15:24:27;0.50;;;0.50;;
13475;SDS011;6810;63.824;20.288;2024-03-22T15:27:13;0.50;;;0.50;;
13475;SDS011;6810;63.824;20.288;2024-03-22T15:30:00;0.50;;;0.50;;
13475;SDS011;6810;63.824;20.288;2024-03-22T15:32:46;0.50;;;0.40;;
13475;SDS011;6810;63.824;20.288;2024-03-22T15:35:29;1.57;;;0.70;;
13475;SDS011;6810;63.824;20.288;2024-03-22T15:38:16;0.90;;;0.60;;
13475;SDS011;6810;63.824;20.288;2024-03-22T15:41:02;1.00;;;0.60;;
13475;SDS011;6810;63.824;20.288;2024-03-22T15:43:48;0.60;;;0.60;;
13475;SDS011;6810;63.824;20.288;2024-03-22T15:46:34;0.80;;;0.73;;
13475;SDS011;6810;63.824;20.288;2024-03-22T15:49:20;0.80;;;0.60;;
13475;SDS011;6810;63.824;20.288;2024-03-22T15:52:06;1.73;;;0.73;;
13475;SDS011;6810;63.824;20.288;2024-03-22T15:54:53;0.67;;;0.67;;
13475;SDS011;6810;63.824;20.288;2024-03-22T15:57:39;0.43;;;0.43;;
13475;SDS011;6810;63.824;20.288;2024-03-22T16:00:25;0.80;;;0.63;;
13475;SDS011;6810;63.824;20.288;2024-03-22T16:03:11;0.50;;;0.50;;
13475;SDS011;6810;63.824;20.288;2024-03-22T16:05:58;0.70;;;0.70;;
13475;SDS011;6810;63.824;20.288;2024-03-22T16:08:45;0.60;;;0.50;;
13475;SDS011;6810;63.824;20.288;2024-03-22T16:11:31;0.73;;;0.60;;
13475;SDS011;6810;63.824;20.288;2024-03-22T16:14:17;0.50;;;0.50;;
13475;SDS011;6810;63.824;20.288;2024-03-22T16:17:03;0.93;;;0.70;;
13475;SDS011;6810;63.824;20.288;2024-03-22T16:19:50;0.50;;;0.50;;
13475;SDS011;6810;63.824;20.288;2024-03-22T16:22:36;0.50;;;0.50;;
13475;SDS011;6810;63.824;20.288;2024-03-22T16:25:22;0.60;;;0.60;;
13475;SDS011;6810;63.824;20.288;2024-03-22T16:28:08;0.97;;;0.60;;
13475;SDS011;6810;63.824;20.288;2024-03-22T16:30:54;1.30;;;0.60;;
13475;SDS011;6810;63.824;20.288;2024-03-22T16:33:40;1.30;;;0.53;;
13475;SDS011;6810;63.824;20.288;2024-03-22T16:36:26;0.67;;;0.53;;
13475;SDS011;6810;63.824;20.288;2024-03-22T16:39:12;1.73;;;0.50;;
13475;SDS011;6810;63.824;20.288;2024-03-22T16:41:59;0.80;;;0.50;;